< < Back
Terminal Aerodrome Forecast


Current Version              Previous Versions:   1  2  3  4  5  6  7  8  9  

Terminal Aerodrome Forecast

274
FTUS42 KFFC 232300
TAFMCN
TAF
KMCN 232335Z 2400/2424 30006KT P6SM SKC
     FM240200 VRB03KT P6SM SKC
     FM241500 10008KT P6SM SKC
     FM241600 13008KT P6SM FEW040
     FM241900 15007KT P6SM SCT060=



Latest METAR

684
SAUS80 KWBC 240400
MTRMCN
METAR KMCN 240353Z AUTO 00000KT 10SM CLR 12/11 A2994 RMK AO2 SLP135
T01220106 TSNO


USA.gov is the U.S. government's official web portal to all federal, state and local government web resources and services.